PWSweather.com
Personal Weather Stations
Station Observations
CAMPIGIANO
Campi Bisenzio, FirenzeIT

Campi BisenzioFirenzeIT

Lat: 43.8175012, Lon: 11.1391085

Elevation: 106

Station Type: LaCrosse WS2350

Latest ConditionsUpdated 9:30:23 AM GMT+01:01 Saturday, Aug 2, 2014
Currently Today's Max Today's Min Today's Average
Temperature 81.1°F27.3°C 81.1°F27.3°C 69.1°F20.6°C 72.3°F22.4°C
Dew Point 70.4°F21.3°C 70.4°F21.3°C 65.0°F18.3°C 67.0°F19.4°C
Winds Calm Calm Calm SWCalm SW - Calm Calm
Wind Gusts -- 2.0 mph3.2 kmh - -
Humidity 70% 88% 70% 84%
Pressure 29.82 in1009.8 mb 29.82 in1009.8 mb 29.79 in1008.8 mb -
Hour Temp Dew Point Humidity Winds Wind Gusts Pressure Precip Precip Rate Daily Precip Total
09:30 AM 81.1°F27.3°C 70.4°F21.3°C 70% Calm Calm -- 29.82 in1009.8 mb 0.00 in0.0 mm 0.00 in/hr0.0 mm/hr 0.00 in0.0 mm
09:15 AM 79.3°F26.3°C 69.5°F20.8°C 72% Calm Calm -- 29.82 in1009.8 mb 0.00 in0.0 mm 0.00 in/hr0.0 mm/hr 0.00 in0.0 mm
09:00 AM 80.1°F26.7°C 70.3°F21.3°C 72% Calm Calm -- 29.82 in1009.8 mb 0.00 in0.0 mm 0.00 in/hr0.0 mm/hr 0.00 in0.0 mm
08:45 AM 78.4°F25.8°C 69.9°F21.1°C 75% Calm Calm 0.7 mph1.1 kmh 29.81 in1009.5 mb 0.00 in0.0 mm 0.00 in/hr0.0 mm/hr 0.00 in0.0 mm
08:30 AM 76.7°F24.8°C 68.9°F20.5°C 77% Calm Calm -- 29.81 in1009.5 mb 0.00 in0.0 mm 0.00 in/hr0.0 mm/hr 0.00 in0.0 mm
08:15 AM 76.6°F24.8°C 68.9°F20.5°C 77% Calm Calm -- 29.80 in1009.1 mb 0.00 in0.0 mm 0.00 in/hr0.0 mm/hr 0.00 in0.0 mm
08:00 AM 76.8°F24.9°C 69.8°F21.0°C 79% Calm Calm -- 29.81 in1009.5 mb 0.00 in0.0 mm 0.00 in/hr0.0 mm/hr 0.00 in0.0 mm
07:45 AM 73.8°F23.2°C 68.3°F20.2°C 83% Calm Calm -- 29.81 in1009.5 mb 0.00 in0.0 mm 0.00 in/hr0.0 mm/hr 0.00 in0.0 mm
07:30 AM 74.0°F23.3°C 68.6°F20.3°C 83% Calm Calm -- 29.81 in1009.5 mb 0.00 in0.0 mm 0.00 in/hr0.0 mm/hr 0.00 in0.0 mm
07:15 AM 72.5°F22.5°C 67.7°F19.8°C 85% Calm Calm 0.7 mph1.1 kmh 29.80 in1009.1 mb 0.00 in0.0 mm 0.00 in/hr0.0 mm/hr 0.00 in0.0 mm
07:00 AM 70.9°F21.6°C 66.5°F19.2°C 86% Calm Calm -- 29.81 in1009.5 mb 0.00 in0.0 mm 0.00 in/hr0.0 mm/hr 0.00 in0.0 mm
06:45 AM 70.9°F21.6°C 66.8°F19.3°C 87% Calm Calm -- 29.81 in1009.5 mb 0.00 in0.0 mm 0.00 in/hr0.0 mm/hr 0.00 in0.0 mm
06:30 AM 70.0°F21.1°C 66.3°F19.1°C 88% Calm Calm -- 29.80 in1009.1 mb 0.00 in0.0 mm 0.00 in/hr0.0 mm/hr 0.00 in0.0 mm
06:15 AM 69.6°F20.9°C 65.9°F18.8°C 88% Calm Calm -- 29.80 in1009.1 mb 0.00 in0.0 mm 0.00 in/hr0.0 mm/hr 0.00 in0.0 mm
06:00 AM 69.4°F20.8°C 65.7°F18.7°C 88% Calm Calm -- 29.80 in1009.1 mb 0.00 in0.0 mm 0.00 in/hr0.0 mm/hr 0.00 in0.0 mm
05:45 AM 69.3°F20.7°C 65.6°F18.7°C 88% Calm Calm -- 29.80 in1009.1 mb 0.00 in0.0 mm 0.00 in/hr0.0 mm/hr 0.00 in0.0 mm
05:30 AM 69.1°F20.6°C 65.4°F18.6°C 88% Calm Calm -- 29.80 in1009.1 mb 0.00 in0.0 mm 0.00 in/hr0.0 mm/hr 0.00 in0.0 mm
05:15 AM 69.1°F20.6°C 65.0°F18.3°C 87% Calm Calm -- 29.79 in1008.8 mb 0.00 in0.0 mm 0.00 in/hr0.0 mm/hr 0.00 in0.0 mm
05:00 AM 69.1°F20.6°C 65.0°F18.3°C 87% Calm Calm -- 29.79 in1008.8 mb 0.00 in0.0 mm 0.00 in/hr0.0 mm/hr 0.00 in0.0 mm
04:45 AM 69.3°F20.7°C 65.2°F18.4°C 87% Calm Calm -- 29.79 in1008.8 mb 0.00 in0.0 mm 0.00 in/hr0.0 mm/hr 0.00 in0.0 mm
04:30 AM 69.6°F20.9°C 65.6°F18.7°C 87% Calm Calm -- 29.79 in1008.8 mb 0.00 in0.0 mm 0.00 in/hr0.0 mm/hr 0.00 in0.0 mm
04:15 AM 70.0°F21.1°C 65.7°F18.7°C 86% Calm Calm -- 29.79 in1008.8 mb 0.00 in0.0 mm 0.00 in/hr0.0 mm/hr 0.00 in0.0 mm
04:00 AM 70.5°F21.4°C 66.5°F19.2°C 87% Calm Calm -- 29.80 in1009.1 mb 0.00 in0.0 mm 0.00 in/hr0.0 mm/hr 0.00 in0.0 mm
03:45 AM 70.7°F21.5°C 66.3°F19.1°C 86% Calm Calm -- 29.80 in1009.1 mb 0.00 in0.0 mm 0.00 in/hr0.0 mm/hr 0.00 in0.0 mm
03:30 AM 71.0°F21.7°C 66.6°F19.2°C 86% Calm Calm -- 29.80 in1009.1 mb 0.00 in0.0 mm 0.00 in/hr0.0 mm/hr 0.00 in0.0 mm
03:15 AM 71.1°F21.7°C 66.3°F19.1°C 85% Calm Calm -- 29.80 in1009.1 mb 0.00 in0.0 mm 0.00 in/hr0.0 mm/hr 0.00 in0.0 mm
03:00 AM 71.2°F21.8°C 66.5°F19.2°C 85% Calm Calm -- 29.80 in1009.1 mb 0.00 in0.0 mm 0.00 in/hr0.0 mm/hr 0.00 in0.0 mm
02:45 AM 71.4°F21.9°C 66.7°F19.3°C 85% Calm Calm -- 29.80 in1009.1 mb 0.00 in0.0 mm 0.00 in/hr0.0 mm/hr 0.00 in0.0 mm
02:30 AM 72.1°F22.3°C 67.0°F19.4°C 84% Calm Calm -- 29.80 in1009.1 mb 0.00 in0.0 mm 0.00 in/hr0.0 mm/hr 0.00 in0.0 mm
02:15 AM 72.3°F22.4°C 67.2°F19.6°C 84% Calm Calm -- 29.80 in1009.1 mb 0.00 in0.0 mm 0.00 in/hr0.0 mm/hr 0.00 in0.0 mm
02:00 AM 72.3°F22.4°C 67.2°F19.6°C 84% Calm Calm -- 29.80 in1009.1 mb 0.00 in0.0 mm 0.00 in/hr0.0 mm/hr 0.00 in0.0 mm
01:45 AM 72.1°F22.3°C 67.0°F19.4°C 84% Calm Calm -- 29.81 in1009.5 mb 0.00 in0.0 mm 0.00 in/hr0.0 mm/hr 0.00 in0.0 mm
01:30 AM 72.1°F22.3°C 67.0°F19.4°C 84% Calm Calm -- 29.80 in1009.1 mb 0.00 in0.0 mm 0.00 in/hr0.0 mm/hr 0.00 in0.0 mm
01:15 AM 72.0°F22.2°C 66.9°F19.4°C 84% Calm Calm 2.0 mph3.2 kmh 29.80 in1009.1 mb 0.00 in0.0 mm 0.00 in/hr0.0 mm/hr 0.00 in0.0 mm
01:00 AM 71.4°F21.9°C 66.3°F19.1°C 84% Calm Calm -- 29.80 in1009.1 mb 0.00 in0.0 mm 0.00 in/hr0.0 mm/hr 0.00 in0.0 mm
12:45 AM 71.4°F21.9°C 66.3°F19.1°C 84% Calm Calm -- 29.81 in1009.5 mb 0.00 in0.0 mm 0.00 in/hr0.0 mm/hr 0.00 in0.0 mm
12:30 AM 71.4°F21.9°C 66.3°F19.1°C 84% Calm Calm -- 29.81 in1009.5 mb 0.00 in0.0 mm 0.00 in/hr0.0 mm/hr 0.00 in0.0 mm
12:15 AM 71.4°F21.9°C 66.3°F19.1°C 84% Calm Calm -- 29.81 in1009.5 mb 0.00 in0.0 mm 0.00 in/hr0.0 mm/hr 0.00 in0.0 mm
12:00 AM 71.5°F21.9°C 66.1°F18.9°C 83% Calm Calm -- 29.81 in1009.5 mb 0.00 in0.0 mm 0.00 in/hr0.0 mm/hr 0.00 in0.0 mm